Time;durP1;ratioP1;P1;durP2;ratioP2;P2;SDS_P1;SDS_P2;PMS_P1;PMS_P2;Temp;Humidity;BMP_temperature;BMP_pressure;BME280_temperature;BME280_humidity;BME280_pressure;Samples;Min_cycle;Max_cycle;Signal;HPM_P1;HPM_P2
2023/04/25 00:01:21;;;;;;;1.80;1.80;;;;;;;;;;5084298;28;20238;-69
2023/04/25 00:03:47;;;;;;;6.20;2.38;;;;;;;;;;5083989;28;20402;-69
2023/04/25 00:06:14;;;;;;;2.00;1.90;;;;;;;;;;5084059;28;20250;-69
2023/04/25 00:08:40;;;;;;;4.18;2.33;;;;;;;;;;5083442;28;20203;-69
2023/04/25 00:11:07;;;;;;;1.88;1.83;;;;;;;;;;5084006;28;20242;-69
2023/04/25 00:13:34;;;;;;;2.35;2.10;;;;;;;;;;5083602;28;20268;-69
2023/04/25 00:16:02;;;;;;;2.88;1.95;;;;;;;;;;5083756;28;20263;-69
2023/04/25 00:18:29;;;;;;;2.13;2.03;;;;;;;;;;5083443;28;20427;-69
2023/04/25 00:20:55;;;;;;;5.07;2.53;;;;;;;;;;5083775;28;20508;-69
2023/04/25 00:23:22;;;;;;;2.33;2.22;;;;;;;;;;5083458;28;20200;-69
2023/04/25 00:25:49;;;;;;;3.85;2.40;;;;;;;;;;5083770;28;20238;-69
2023/04/25 00:28:15;;;;;;;3.13;2.20;;;;;;;;;;5083438;28;20451;-69
2023/04/25 00:30:43;;;;;;;2.63;2.42;;;;;;;;;;5083443;28;20267;-69
2023/04/25 00:33:10;;;;;;;2.35;2.20;;;;;;;;;;5083337;28;20246;-69
2023/04/25 00:35:36;;;;;;;4.35;2.13;;;;;;;;;;5083248;28;20200;-69
2023/04/25 00:38:03;;;;;;;2.97;2.15;;;;;;;;;;5083068;28;20200;-69
2023/04/25 00:40:29;;;;;;;2.00;1.90;;;;;;;;;;5083384;28;20254;-69
2023/04/25 00:42:55;;;;;;;2.63;1.92;;;;;;;;;;5083245;28;20268;-69
2023/04/25 00:45:22;;;;;;;2.30;2.20;;;;;;;;;;5083284;28;20425;-69
2023/04/25 00:47:50;;;;;;;2.55;2.35;;;;;;;;;;5082803;28;20242;-69
2023/04/25 00:50:16;;;;;;;2.13;1.98;;;;;;;;;;5083085;28;20271;-69
2023/04/25 00:52:44;;;;;;;4.57;2.45;;;;;;;;;;5082933;28;20242;-69
2023/04/25 00:55:11;;;;;;;3.92;2.45;;;;;;;;;;5083132;28;20212;-69
2023/04/25 00:57:37;;;;;;;2.38;2.13;;;;;;;;;;5081620;28;20217;-69
2023/04/25 01:00:06;;;;;;;2.60;2.50;;;;;;;;;;5082866;28;20222;-69
2023/04/25 01:02:32;;;;;;;2.30;2.20;;;;;;;;;;5082683;28;20208;-69
2023/04/25 01:05:00;;;;;;;1.88;1.77;;;;;;;;;;5082784;28;20204;-69
2023/04/25 01:07:27;;;;;;;2.58;2.00;;;;;;;;;;5082570;28;20193;-69
2023/04/25 01:09:53;;;;;;;2.30;2.13;;;;;;;;;;5082809;28;20246;-69
2023/04/25 01:12:19;;;;;;;1.92;1.92;;;;;;;;;;5082728;28;20200;-69
2023/04/25 01:14:46;;;;;;;2.30;2.20;;;;;;;;;;5074440;28;20512;-69
2023/04/25 01:17:13;;;;;;;2.22;2.10;;;;;;;;;;5082052;28;20224;-69
2023/04/25 01:19:39;;;;;;;2.28;1.83;;;;;;;;;;5082371;28;20207;-69
2023/04/25 01:22:10;;;;;;;2.60;2.40;;;;;;;;;;5082523;28;20508;-69
2023/04/25 01:24:36;;;;;;;2.05;2.00;;;;;;;;;;5082674;28;20200;-69
2023/04/25 01:27:02;;;;;;;2.25;2.10;;;;;;;;;;5082761;28;20204;-69
2023/04/25 01:29:29;;;;;;;4.15;2.42;;;;;;;;;;5081989;28;20212;-69
2023/04/25 01:31:56;;;;;;;2.35;2.15;;;;;;;;;;5082531;28;20200;-69
2023/04/25 01:34:22;;;;;;;3.17;2.28;;;;;;;;;;5082279;28;20419;-69
2023/04/25 01:36:49;;;;;;;3.42;2.40;;;;;;;;;;5082153;28;20242;-69
2023/04/25 01:39:17;;;;;;;2.28;2.17;;;;;;;;;;5082147;28;20200;-69
2023/04/25 01:41:43;;;;;;;2.90;2.53;;;;;;;;;;5082146;28;20565;-69
2023/04/25 01:44:10;;;;;;;2.00;1.90;;;;;;;;;;5082338;28;20206;-69
2023/04/25 01:46:36;;;;;;;2.00;2.00;;;;;;;;;;5082149;28;20204;-69
2023/04/25 01:49:02;;;;;;;2.88;2.65;;;;;;;;;;5081999;28;20201;-69
2023/04/25 01:51:29;;;;;;;2.63;2.45;;;;;;;;;;5082352;28;20204;-69
2023/04/25 01:53:56;;;;;;;2.53;2.42;;;;;;;;;;5082037;28;20515;-69
2023/04/25 01:56:23;;;;;;;4.78;2.65;;;;;;;;;;5081683;28;20223;-69
2023/04/25 01:58:50;;;;;;;2.50;2.40;;;;;;;;;;5081943;28;20200;-69
2023/04/25 02:01:16;;;;;;;6.10;2.85;;;;;;;;;;5082114;28;20500;-69
2023/04/25 02:03:42;;;;;;;3.42;2.80;;;;;;;;;;5081784;28;20208;-69
2023/04/25 02:06:08;;;;;;;3.35;2.50;;;;;;;;;;5081928;28;20219;-69
2023/04/25 02:08:37;;;;;;;2.85;2.50;;;;;;;;;;5081415;28;20214;-69
2023/04/25 02:11:03;;;;;;;4.95;2.90;;;;;;;;;;5082347;28;20480;-69
2023/04/25 02:13:31;;;;;;;2.90;2.70;;;;;;;;;;5081702;28;20511;-69
2023/04/25 02:15:57;;;;;;;3.28;2.97;;;;;;;;;;5081929;28;20503;-69
2023/04/25 02:18:23;;;;;;;2.60;2.50;;;;;;;;;;5081391;28;20219;-69
2023/04/25 02:20:50;;;;;;;2.63;2.50;;;;;;;;;;5081767;28;20199;-69
2023/04/25 02:23:16;;;;;;;2.55;2.35;;;;;;;;;;5081828;28;20212;-69
2023/04/25 02:25:42;;;;;;;2.40;2.30;;;;;;;;;;5081540;28;20210;-69
2023/04/25 02:28:08;;;;;;;2.85;2.65;;;;;;;;;;5081790;28;20212;-69
2023/04/25 02:30:36;;;;;;;2.65;2.45;;;;;;;;;;5081662;28;20200;-69
2023/04/25 02:33:02;;;;;;;2.72;2.08;;;;;;;;;;5081665;28;20200;-69
2023/04/25 02:35:29;;;;;;;2.00;1.90;;;;;;;;;;5081573;28;20397;-68
2023/04/25 02:37:55;;;;;;;2.97;2.08;;;;;;;;;;5081258;28;20539;-68
2023/04/25 02:40:21;;;;;;;2.35;1.60;;;;;;;;;;5081684;28;20421;-68
2023/04/25 02:42:47;;;;;;;2.42;1.77;;;;;;;;;;5081548;28;20526;-68
2023/04/25 02:45:14;;;;;;;2.45;2.25;;;;;;;;;;5081595;28;20238;-68
2023/04/25 02:47:41;;;;;;;2.58;1.80;;;;;;;;;;5081612;28;20416;-68
2023/04/25 02:50:08;;;;;;;2.63;1.85;;;;;;;;;;5081603;28;20205;-68
2023/04/25 02:52:34;;;;;;;1.95;1.85;;;;;;;;;;5081305;28;20499;-68
2023/04/25 02:55:00;;;;;;;2.10;1.95;;;;;;;;;;5081318;28;20205;-68
2023/04/25 02:57:27;;;;;;;1.90;1.80;;;;;;;;;;5081086;28;20539;-68
2023/04/25 02:59:53;;;;;;;1.67;1.67;;;;;;;;;;5081530;28;20208;-68
2023/04/25 03:02:19;;;;;;;2.20;1.83;;;;;;;;;;5081446;28;20246;-68
2023/04/25 03:04:47;;;;;;;1.67;1.65;;;;;;;;;;5081282;28;20231;-68
2023/04/25 03:07:14;;;;;;;1.90;1.80;;;;;;;;;;5081654;28;20480;-68
2023/04/25 03:09:40;;;;;;;2.08;1.98;;;;;;;;;;5081192;28;20438;-68
2023/04/25 03:12:06;;;;;;;1.98;1.80;;;;;;;;;;5081412;28;20388;-68
2023/04/25 03:14:33;;;;;;;2.28;2.08;;;;;;;;;;5080970;28;20200;-68
2023/04/25 03:17:00;;;;;;;2.33;2.22;;;;;;;;;;5081105;28;20254;-68
2023/04/25 03:19:26;;;;;;;2.40;2.30;;;;;;;;;;5080945;28;20423;-68
2023/04/25 03:21:54;;;;;;;2.40;1.83;;;;;;;;;;5083371;28;20197;-68
2023/04/25 03:24:20;;;;;;;2.22;2.10;;;;;;;;;;5084917;28;20220;-68
2023/04/25 03:26:46;;;;;;;2.22;2.13;;;;;;;;;;5084603;28;20523;-68
2023/04/25 03:29:12;;;;;;;1.70;1.60;;;;;;;;;;5084696;28;20519;-68
2023/04/25 03:31:39;;;;;;;2.00;1.90;;;;;;;;;;5084581;28;20250;-68
2023/04/25 03:34:05;;;;;;;1.90;1.77;;;;;;;;;;5084612;28;20235;-68
2023/04/25 03:36:32;;;;;;;2.15;1.85;;;;;;;;;;5084204;28;20204;-68
2023/04/25 03:39:00;;;;;;;2.90;2.17;;;;;;;;;;5084224;28;20256;-68
2023/04/25 03:41:26;;;;;;;2.30;2.10;;;;;;;;;;5084214;28;20199;-68
2023/04/25 03:43:52;;;;;;;3.03;2.05;;;;;;;;;;5084220;28;20196;-68
2023/04/25 03:46:18;;;;;;;1.92;1.75;;;;;;;;;;5084288;28;20238;-68
2023/04/25 03:48:45;;;;;;;1.85;1.75;;;;;;;;;;5083957;28;20196;-68
2023/04/25 03:51:11;;;;;;;1.98;1.88;;;;;;;;;;5084072;28;20496;-68
2023/04/25 03:53:37;;;;;;;2.00;1.90;;;;;;;;;;5084309;28;20207;-68
2023/04/25 03:56:05;;;;;;;2.70;2.17;;;;;;;;;;5084114;28;20208;-68
2023/04/25 03:58:31;;;;;;;2.20;2.00;;;;;;;;;;5083818;28;20254;-68
2023/04/25 04:00:58;;;;;;;2.13;2.05;;;;;;;;;;5084538;28;20268;-68
2023/04/25 04:03:24;;;;;;;2.55;2.33;;;;;;;;;;5084029;28;20197;-69
2023/04/25 04:05:50;;;;;;;2.17;2.08;;;;;;;;;;5084099;28;20197;-69
2023/04/25 04:08:16;;;;;;;3.20;2.00;;;;;;;;;;5084073;28;20192;-69
2023/04/25 04:10:43;;;;;;;6.68;2.60;;;;;;;;;;5083800;28;20205;-69
2023/04/25 04:13:10;;;;;;;2.17;2.00;;;;;;;;;;5083923;28;20200;-69
2023/04/25 04:15:37;;;;;;;4.72;2.60;;;;;;;;;;5084006;28;20204;-69
2023/04/25 04:18:03;;;;;;;2.67;2.30;;;;;;;;;;5083474;28;20212;-69
2023/04/25 04:20:30;;;;;;;5.50;2.10;;;;;;;;;;5083805;28;20238;-70
2023/04/25 04:22:56;;;;;;;2.47;2.38;;;;;;;;;;5075403;28;20197;-69
2023/04/25 04:25:22;;;;;;;3.83;2.70;;;;;;;;;;5082658;28;20200;-68
2023/04/25 04:27:51;;;;;;;2.67;2.33;;;;;;;;;;5083287;28;20400;-69
2023/04/25 04:30:19;;;;;;;2.53;2.00;;;;;;;;;;5084294;28;20261;-69
2023/04/25 04:32:46;;;;;;;3.50;2.47;;;;;;;;;;5083187;28;20200;-69
2023/04/25 04:35:12;;;;;;;3.53;2.40;;;;;;;;;;5083414;28;20500;-69
2023/04/25 04:37:38;;;;;;;2.40;2.30;;;;;;;;;;5082912;28;20208;-69
2023/04/25 04:40:05;;;;;;;6.22;2.53;;;;;;;;;;5083289;28;20200;-69
2023/04/25 04:42:32;;;;;;;3.10;2.80;;;;;;;;;;5083319;28;20200;-69
2023/04/25 04:45:01;;;;;;;2.72;2.60;;;;;;;;;;5083217;28;20212;-69
2023/04/25 04:47:31;;;;;;;5.32;2.85;;;;;;;;;;5082893;28;20242;-69
2023/04/25 04:49:57;;;;;;;7.88;3.38;;;;;;;;;;5075025;28;20224;-69
2023/04/25 04:52:23;;;;;;;2.58;2.47;;;;;;;;;;5083138;28;20196;-69
2023/04/25 04:54:49;;;;;;;3.08;2.83;;;;;;;;;;5082773;28;20200;-69
2023/04/25 04:57:16;;;;;;;3.22;2.53;;;;;;;;;;5082841;28;20231;-69
2023/04/25 04:59:42;;;;;;;3.08;2.55;;;;;;;;;;5082646;28;20212;-69
2023/04/25 05:02:09;;;;;;;5.35;3.42;;;;;;;;;;5083195;28;20500;-69
2023/04/25 05:04:36;;;;;;;6.53;3.88;;;;;;;;;;5082945;28;20390;-69
2023/04/25 05:07:02;;;;;;;7.30;3.72;;;;;;;;;;5082772;28;20196;-69
2023/04/25 05:09:29;;;;;;;6.60;3.60;;;;;;;;;;5082494;28;20204;-69
2023/04/25 05:11:55;;;;;;;4.68;3.55;;;;;;;;;;5082725;28;20544;-69
2023/04/25 05:14:22;;;;;;;5.80;3.30;;;;;;;;;;5082432;28;20223;-69
2023/04/25 05:16:48;;;;;;;7.20;2.85;;;;;;;;;;5082710;28;20267;-69
2023/04/25 05:19:15;;;;;;;5.22;3.10;;;;;;;;;;5082469;28;20220;-69
2023/04/25 05:21:43;;;;;;;4.38;3.25;;;;;;;;;;5082495;28;20204;-69
2023/04/25 05:24:09;;;;;;;3.30;2.60;;;;;;;;;;5082451;28;20275;-69
2023/04/25 05:26:35;;;;;;;2.72;2.47;;;;;;;;;;5082517;28;20392;-69
2023/04/25 05:29:02;;;;;;;3.20;2.40;;;;;;;;;;5082558;28;20255;-69
2023/04/25 05:31:28;;;;;;;3.50;2.58;;;;;;;;;;5082578;28;20196;-69
2023/04/25 05:33:54;;;;;;;3.42;2.42;;;;;;;;;;5082355;28;20205;-69
2023/04/25 05:36:21;;;;;;;3.85;2.72;;;;;;;;;;5082224;28;20235;-69
2023/04/25 05:38:48;;;;;;;2.95;2.40;;;;;;;;;;5081834;28;20220;-69
2023/04/25 05:41:15;;;;;;;2.25;2.05;;;;;;;;;;5082616;28;20254;-69
2023/04/25 05:43:44;;;;;;;2.53;2.40;;;;;;;;;;5081543;28;20197;-69
2023/04/25 05:46:11;;;;;;;3.03;2.63;;;;;;;;;;5082216;28;20204;-69
2023/04/25 05:48:37;;;;;;;2.85;2.67;;;;;;;;;;5081915;28;20212;-69
2023/04/25 05:51:03;;;;;;;5.97;2.72;;;;;;;;;;5082346;28;20208;-69
2023/04/25 05:53:30;;;;;;;5.00;2.83;;;;;;;;;;5082032;28;20476;-69
2023/04/25 05:55:57;;;;;;;5.10;4.28;;;;;;;;;;5082034;28;20215;-69
2023/04/25 05:58:23;;;;;;;3.80;2.95;;;;;;;;;;5081867;28;20224;-69
2023/04/25 06:00:50;;;;;;;4.00;2.88;;;;;;;;;;5082191;28;20351;-69
2023/04/25 06:03:16;;;;;;;2.63;2.45;;;;;;;;;;5082483;28;20205;-69
2023/04/25 06:05:43;;;;;;;4.38;2.92;;;;;;;;;;5081990;28;20201;-69
2023/04/25 06:08:09;;;;;;;4.25;2.92;;;;;;;;;;5081725;28;20192;-69
2023/04/25 06:10:36;;;;;;;2.75;2.55;;;;;;;;;;5081852;28;20268;-69
2023/04/25 06:13:03;;;;;;;3.15;2.70;;;;;;;;;;5065482;28;20267;-69
2023/04/25 06:15:29;;;;;;;2.83;2.53;;;;;;;;;;5082003;28;20200;-69
2023/04/25 06:17:56;;;;;;;2.90;2.38;;;;;;;;;;5081271;28;20216;-69
2023/04/25 06:20:24;;;;;;;3.10;2.80;;;;;;;;;;5081973;28;20197;-69
2023/04/25 06:22:51;;;;;;;3.35;2.58;;;;;;;;;;5081758;28;20236;-69
2023/04/25 06:25:18;;;;;;;2.10;2.00;;;;;;;;;;5081838;28;20204;-69
2023/04/25 06:27:44;;;;;;;2.30;2.20;;;;;;;;;;5081587;28;20223;-69
2023/04/25 06:30:12;;;;;;;2.60;2.50;;;;;;;;;;5081879;28;20491;-69
2023/04/25 06:32:38;;;;;;;2.40;2.20;;;;;;;;;;5081683;28;20226;-69
2023/04/25 06:35:05;;;;;;;3.50;2.20;;;;;;;;;;5081732;28;20196;-69
2023/04/25 06:37:31;;;;;;;2.22;2.10;;;;;;;;;;5081208;28;20203;-68
2023/04/25 06:39:58;;;;;;;2.50;2.30;;;;;;;;;;5081999;28;20204;-68
2023/04/25 06:42:24;;;;;;;2.10;2.10;;;;;;;;;;5081685;28;20204;-68
2023/04/25 06:44:50;;;;;;;2.45;2.35;;;;;;;;;;5081483;28;20200;-69
2023/04/25 06:47:18;;;;;;;2.42;2.33;;;;;;;;;;5081404;28;20196;-69
2023/04/25 06:49:44;;;;;;;2.50;2.33;;;;;;;;;;5081159;28;20413;-69
2023/04/25 06:52:10;;;;;;;2.55;2.45;;;;;;;;;;5081241;28;20504;-69
2023/04/25 06:54:37;;;;;;;2.50;2.30;;;;;;;;;;5081636;28;20423;-69
2023/04/25 06:57:03;;;;;;;2.20;2.10;;;;;;;;;;5084088;28;20197;-69
2023/04/25 06:59:29;;;;;;;2.45;2.30;;;;;;;;;;5085068;28;20262;-69
2023/04/25 07:01:55;;;;;;;2.70;2.60;;;;;;;;;;5085108;28;20208;-69
2023/04/25 07:04:23;;;;;;;2.33;2.17;;;;;;;;;;5085198;28;20242;-69
2023/04/25 07:06:49;;;;;;;2.30;2.20;;;;;;;;;;5084915;28;20200;-69
2023/04/25 07:09:16;;;;;;;3.75;3.20;;;;;;;;;;5084936;28;20199;-69
2023/04/25 07:11:42;;;;;;;3.45;3.00;;;;;;;;;;5084795;28;20207;-69
2023/04/25 07:14:08;;;;;;;4.32;3.25;;;;;;;;;;5084949;28;20499;-69
2023/04/25 07:16:35;;;;;;;2.80;2.60;;;;;;;;;;5084833;28;20389;-69
2023/04/25 07:19:01;;;;;;;2.70;2.60;;;;;;;;;;5085110;28;20555;-68
2023/04/25 07:21:28;;;;;;;3.30;3.00;;;;;;;;;;5084656;28;20196;-68
2023/04/25 07:23:55;;;;;;;2.90;2.63;;;;;;;;;;5084771;28;20207;-68
2023/04/25 07:26:21;;;;;;;3.42;2.15;;;;;;;;;;5084896;28;20200;-69
2023/04/25 07:28:50;;;;;;;2.65;2.45;;;;;;;;;;5084493;28;20217;-69
2023/04/25 07:31:17;;;;;;;2.30;2.20;;;;;;;;;;5084624;28;20196;-69
2023/04/25 07:33:44;;;;;;;2.95;2.55;;;;;;;;;;5084449;28;20213;-69
2023/04/25 07:36:10;;;;;;;2.70;2.50;;;;;;;;;;5084861;28;20211;-69
2023/04/25 07:38:38;;;;;;;3.47;2.55;;;;;;;;;;5084273;28;20216;-69
2023/04/25 07:41:04;;;;;;;3.13;2.80;;;;;;;;;;5084645;28;20541;-69
2023/04/25 07:43:30;;;;;;;3.05;2.90;;;;;;;;;;5084495;28;20197;-69
2023/04/25 07:45:56;;;;;;;3.20;3.00;;;;;;;;;;5084382;28;20200;-69
2023/04/25 07:48:23;;;;;;;3.92;2.67;;;;;;;;;;5084085;28;20192;-69
2023/04/25 07:50:49;;;;;;;2.90;2.70;;;;;;;;;;5084271;28;20499;-69
2023/04/25 07:53:15;;;;;;;3.00;2.90;;;;;;;;;;5084669;28;20228;-69
2023/04/25 07:55:43;;;;;;;3.80;3.28;;;;;;;;;;5084644;28;20519;-69
2023/04/25 07:58:10;;;;;;;2.20;2.20;;;;;;;;;;5075984;28;20519;-69
2023/04/25 08:00:36;;;;;;;3.15;2.67;;;;;;;;;;5084231;28;20196;-69
2023/04/25 08:03:02;;;;;;;2.80;2.63;;;;;;;;;;5083838;28;20215;-69
2023/04/25 08:05:29;;;;;;;3.13;2.92;;;;;;;;;;5084160;28;20196;-69
2023/04/25 08:07:56;;;;;;;3.05;2.83;;;;;;;;;;5083646;28;20200;-69
2023/04/25 08:10:23;;;;;;;3.08;2.88;;;;;;;;;;5084273;28;20231;-69
2023/04/25 08:12:50;;;;;;;3.20;3.00;;;;;;;;;;5083867;28;20209;-69
2023/04/25 08:15:16;;;;;;;2.75;2.65;;;;;;;;;;5084546;28;20391;-69
2023/04/25 08:17:43;;;;;;;3.25;2.83;;;;;;;;;;5083737;28;20370;-69
2023/04/25 08:20:10;;;;;;;3.17;2.97;;;;;;;;;;5075695;28;20222;-69
2023/04/25 08:22:36;;;;;;;3.10;3.00;;;;;;;;;;5083796;28;20200;-69
2023/04/25 08:25:03;;;;;;;3.15;2.95;;;;;;;;;;5083592;28;20205;-69
2023/04/25 08:27:29;;;;;;;3.45;3.25;;;;;;;;;;5083471;28;20216;-69
2023/04/25 08:29:58;;;;;;;3.30;3.10;;;;;;;;;;5083584;28;20196;-69
2023/04/25 08:32:25;;;;;;;4.13;3.85;;;;;;;;;;5083473;28;20204;-69
2023/04/25 08:34:53;;;;;;;3.38;3.25;;;;;;;;;;5083529;28;20553;-68
2023/04/25 08:37:20;;;;;;;4.18;3.88;;;;;;;;;;5083467;28;20209;-68
2023/04/25 08:39:47;;;;;;;4.25;3.97;;;;;;;;;;5083176;28;20220;-68
2023/04/25 08:42:15;;;;;;;4.82;4.25;;;;;;;;;;5083230;28;20204;-68
2023/04/25 08:44:41;;;;;;;5.20;4.55;;;;;;;;;;5083275;28;20204;-68
2023/04/25 08:47:09;;;;;;;4.30;4.07;;;;;;;;;;5083031;28;20197;-68
2023/04/25 08:49:35;;;;;;;4.78;4.25;;;;;;;;;;5083031;28;20192;-68
2023/04/25 08:52:03;;;;;;;4.50;4.10;;;;;;;;;;5083066;28;20200;-68
2023/04/25 08:54:31;;;;;;;4.57;4.28;;;;;;;;;;5083152;28;20441;-68
2023/04/25 08:56:58;;;;;;;5.13;4.40;;;;;;;;;;5082891;28;20207;-68
2023/04/25 08:59:24;;;;;;;4.35;4.00;;;;;;;;;;5082625;28;20219;-68
2023/04/25 09:01:51;;;;;;;4.75;4.25;;;;;;;;;;5083093;28;20473;-68
2023/04/25 09:04:20;;;;;;;4.65;4.30;;;;;;;;;;5082842;28;20195;-68
2023/04/25 09:06:46;;;;;;;4.72;4.40;;;;;;;;;;5082840;28;20503;-68
2023/04/25 09:09:13;;;;;;;4.68;4.30;;;;;;;;;;5074499;28;20215;-68
2023/04/25 09:11:40;;;;;;;5.82;4.47;;;;;;;;;;5082834;28;20333;-68
2023/04/25 09:14:13;;;;;;;5.47;5.05;;;;;;;;;;5082299;28;20232;-68
2023/04/25 09:16:59;;;;;;;4.95;4.45;;;;;;;;;;5082687;28;20196;-68
2023/04/25 09:19:27;;;;;;;5.22;4.72;;;;;;;;;;5075204;28;20212;-68
2023/04/25 09:21:54;;;;;;;5.18;4.75;;;;;;;;;;5082414;28;20242;-68
2023/04/25 09:24:30;;;;;;;5.28;4.88;;;;;;;;;;5082360;28;20200;-68
2023/04/25 09:26:56;;;;;;;6.30;4.53;;;;;;;;;;5082308;28;20204;-68
2023/04/25 09:29:29;;;;;;;5.22;4.82;;;;;;;;;;5082212;28;20193;-68
2023/04/25 09:32:10;;;;;;;5.90;5.50;;;;;;;;;;5082386;28;20523;-68
2023/04/25 09:34:41;;;;;;;5.88;5.38;;;;;;;;;;5082341;28;20201;-69
2023/04/25 09:37:08;;;;;;;7.10;5.97;;;;;;;;;;5082206;28;20200;-69
2023/04/25 09:39:34;;;;;;;7.00;6.03;;;;;;;;;;5082419;28;20216;-69
2023/04/25 09:42:01;;;;;;;6.55;5.95;;;;;;;;;;5082540;28;20545;-69
2023/04/25 09:44:27;;;;;;;6.72;6.07;;;;;;;;;;5082544;28;20215;-69
2023/04/25 09:46:54;;;;;;;6.40;5.75;;;;;;;;;;5082038;28;20208;-68
2023/04/25 09:49:20;;;;;;;5.88;5.35;;;;;;;;;;5082344;28;20193;-68
2023/04/25 09:51:56;;;;;;;5.22;4.82;;;;;;;;;;5082168;28;20201;-68
2023/04/25 09:54:22;;;;;;;5.90;5.00;;;;;;;;;;5074984;28;20192;-68
2023/04/25 09:56:49;;;;;;;5.43;5.03;;;;;;;;;;5082035;28;20201;-68
2023/04/25 09:59:16;;;;;;;5.65;5.25;;;;;;;;;;5073581;28;20290;-68
2023/04/25 10:01:43;;;;;;;5.40;5.00;;;;;;;;;;5082019;28;20200;-68
2023/04/25 10:04:11;;;;;;;5.32;4.90;;;;;;;;;;5081745;28;20204;-68
2023/04/25 10:06:38;;;;;;;5.32;4.93;;;;;;;;;;5081966;28;20197;-68
2023/04/25 10:09:07;;;;;;;5.55;5.15;;;;;;;;;;5081808;28;20254;-68
2023/04/25 10:11:34;;;;;;;6.97;5.82;;;;;;;;;;5082031;28;20196;-68
2023/04/25 10:14:00;;;;;;;5.75;5.30;;;;;;;;;;5082000;28;20377;-68
2023/04/25 10:19:11;;;;;;;5.95;5.43;;;;;;;;;;5081425;28;20419;-68
2023/04/25 10:21:41;;;;;;;6.00;5.60;;;;;;;;;;5081936;28;20197;-68
2023/04/25 10:24:09;;;;;;;6.90;5.20;;;;;;;;;;5081658;28;20200;-68
2023/04/25 10:26:35;;;;;;;5.68;5.28;;;;;;;;;;5081483;28;20200;-68
2023/04/25 10:29:02;;;;;;;5.85;5.45;;;;;;;;;;5081356;28;20223;-68
2023/04/25 10:31:30;;;;;;;5.95;4.80;;;;;;;;;;5085376;28;20219;-68
2023/04/25 10:33:57;;;;;;;4.90;4.60;;;;;;;;;;5085961;28;20222;-68
2023/04/25 10:36:24;;;;;;;3.70;3.20;;;;;;;;;;5085895;28;20258;-68
2023/04/25 10:38:51;;;;;;;3.60;3.40;;;;;;;;;;5085637;28;20200;-68
2023/04/25 10:41:20;;;;;;;3.53;3.30;;;;;;;;;;5085785;28;20298;-68
2023/04/25 10:43:46;;;;;;;4.05;3.75;;;;;;;;;;5085915;28;20305;-68
2023/04/25 10:46:16;;;;;;;4.65;3.10;;;;;;;;;;5085511;28;20565;-68
2023/04/25 10:48:47;;;;;;;3.55;3.35;;;;;;;;;;5085544;28;20200;-69
2023/04/25 10:51:17;;;;;;;2.90;2.80;;;;;;;;;;5085447;28;20197;-68
2023/04/25 10:53:44;;;;;;;2.10;2.00;;;;;;;;;;5085661;28;20200;-69
2023/04/25 10:56:12;;;;;;;2.83;2.60;;;;;;;;;;5085130;28;20250;-69
2023/04/25 10:58:43;;;;;;;2.83;2.70;;;;;;;;;;5085306;28;20504;-69
2023/04/25 11:01:10;;;;;;;2.58;2.47;;;;;;;;;;5085251;28;20220;-69
2023/04/25 11:03:39;;;;;;;1.90;1.90;;;;;;;;;;5085615;28;20520;-69
2023/04/25 11:06:06;;;;;;;2.50;2.40;;;;;;;;;;5085195;28;20459;-69
2023/04/25 11:08:38;;;;;;;1.80;1.70;;;;;;;;;;5084680;28;20203;-69
2023/04/25 11:11:04;;;;;;;1.92;1.92;;;;;;;;;;5085109;28;20204;-69
2023/04/25 11:13:31;;;;;;;2.38;2.28;;;;;;;;;;5085140;28;20201;-69
2023/04/25 11:15:58;;;;;;;2.05;1.95;;;;;;;;;;5084925;28;20200;-69
2023/04/25 11:18:26;;;;;;;2.97;1.60;;;;;;;;;;5084916;28;20246;-69
2023/04/25 11:20:53;;;;;;;1.58;1.50;;;;;;;;;;5084891;28;20543;-69
2023/04/25 11:23:19;;;;;;;1.98;1.88;;;;;;;;;;5076822;28;20511;-69
2023/04/25 11:25:45;;;;;;;2.15;1.95;;;;;;;;;;5085019;28;20391;-70
2023/04/25 11:28:11;;;;;;;2.40;2.20;;;;;;;;;;5084403;28;20220;-69
2023/04/25 11:30:38;;;;;;;2.85;1.88;;;;;;;;;;5084827;28;20204;-69
2023/04/25 11:33:05;;;;;;;1.73;1.63;;;;;;;;;;5085097;28;20200;-69
2023/04/25 11:35:33;;;;;;;1.60;1.60;;;;;;;;;;5084694;28;20709;-69
2023/04/25 11:38:00;;;;;;;1.17;1.17;;;;;;;;;;5084589;28;20200;-69
2023/04/25 11:40:26;;;;;;;1.27;1.27;;;;;;;;;;5084876;28;20238;-69
2023/04/25 11:42:53;;;;;;;1.45;1.45;;;;;;;;;;5083756;28;20263;-69
2023/04/25 11:45:19;;;;;;;1.30;1.30;;;;;;;;;;5084444;28;20503;-69
2023/04/25 11:47:46;;;;;;;1.48;1.48;;;;;;;;;;5084123;28;20196;-69
2023/04/25 11:50:14;;;;;;;1.45;1.45;;;;;;;;;;5084298;28;20196;-69
2023/04/25 11:52:40;;;;;;;1.70;1.70;;;;;;;;;;5084648;28;20504;-69
2023/04/25 11:55:07;;;;;;;1.58;1.58;;;;;;;;;;5084356;28;20248;-69
2023/04/25 11:57:34;;;;;;;1.42;1.33;;;;;;;;;;5084087;28;20389;-69
2023/04/25 12:00:06;;;;;;;1.35;1.35;;;;;;;;;;5083990;28;20220;-69
2023/04/25 12:02:35;;;;;;;2.10;1.42;;;;;;;;;;5084088;28;20215;-69
2023/04/25 12:05:01;;;;;;;1.40;1.40;;;;;;;;;;5084020;28;20204;-69
2023/04/25 12:07:31;;;;;;;1.83;1.30;;;;;;;;;;5084061;28;20197;-69
2023/04/25 12:09:57;;;;;;;1.58;1.58;;;;;;;;;;5083955;28;20196;-69
2023/04/25 12:12:27;;;;;;;1.50;1.40;;;;;;;;;;5084046;28;20204;-69
2023/04/25 12:14:55;;;;;;;1.23;1.23;;;;;;;;;;5083863;28;20201;-69
2023/04/25 12:17:21;;;;;;;1.80;1.70;;;;;;;;;;5083708;28;20220;-69
2023/04/25 12:19:47;;;;;;;1.50;1.50;;;;;;;;;;5083880;28;20220;-69
2023/04/25 12:22:20;;;;;;;2.58;2.00;;;;;;;;;;5084031;28;20201;-69
2023/04/25 12:24:48;;;;;;;2.30;2.20;;;;;;;;;;5083757;28;20209;-69
2023/04/25 12:27:18;;;;;;;2.33;2.22;;;;;;;;;;5083472;28;20262;-69
2023/04/25 12:29:51;;;;;;;2.88;2.78;;;;;;;;;;5083489;28;20208;-69
2023/04/25 12:32:17;;;;;;;2.90;2.70;;;;;;;;;;5083508;28;20216;-69
2023/04/25 12:34:44;;;;;;;2.47;2.38;;;;;;;;;;5083679;28;20214;-69
2023/04/25 12:37:11;;;;;;;2.47;2.28;;;;;;;;;;5083356;28;20201;-69
2023/04/25 12:39:37;;;;;;;2.72;2.63;;;;;;;;;;5083285;28;20369;-69
2023/04/25 12:42:05;;;;;;;3.50;3.30;;;;;;;;;;5083622;28;20622;-69
2023/04/25 12:44:31;;;;;;;2.97;2.88;;;;;;;;;;5083182;28;20274;-69
2023/04/25 12:46:57;;;;;;;3.17;2.97;;;;;;;;;;5083375;28;20435;-69
2023/04/25 12:49:23;;;;;;;2.47;2.40;;;;;;;;;;5083137;28;20197;-69
2023/04/25 12:51:51;;;;;;;3.00;2.72;;;;;;;;;;5083311;28;20205;-69
2023/04/25 12:54:17;;;;;;;2.63;2.50;;;;;;;;;;5082553;28;20207;-69
2023/04/25 12:56:43;;;;;;;3.25;3.05;;;;;;;;;;5083013;28;20207;-69
2023/04/25 12:59:11;;;;;;;5.10;4.70;;;;;;;;;;5083147;28;20515;-69
2023/04/25 13:01:38;;;;;;;3.55;3.35;;;;;;;;;;5083194;28;20586;-69
2023/04/25 13:04:04;;;;;;;3.80;3.58;;;;;;;;;;5083258;28;20518;-69
2023/04/25 13:06:30;;;;;;;4.30;4.05;;;;;;;;;;5082967;28;20526;-69
2023/04/25 13:08:57;;;;;;;5.90;4.28;;;;;;;;;;5082675;28;20200;-69
2023/04/25 13:11:23;;;;;;;4.72;4.22;;;;;;;;;;5082524;28;20192;-69
2023/04/25 13:13:49;;;;;;;4.55;4.15;;;;;;;;;;5082060;28;20204;-69
2023/04/25 13:16:18;;;;;;;4.95;4.55;;;;;;;;;;5082757;28;20500;-69
2023/04/25 13:18:44;;;;;;;5.15;4.85;;;;;;;;;;5078370;28;20200;-69
2023/04/25 13:21:11;;;;;;;5.20;4.78;;;;;;;;;;5078357;28;20227;-69
2023/04/25 13:23:38;;;;;;;5.38;4.97;;;;;;;;;;5079116;28;20196;-69
2023/04/25 13:26:04;;;;;;;4.68;4.28;;;;;;;;;;5081993;28;20215;-69
2023/04/25 13:28:30;;;;;;;5.28;4.78;;;;;;;;;;5081853;28;20222;-69
2023/04/25 13:30:57;;;;;;;4.60;4.40;;;;;;;;;;5082212;28;20204;-69
2023/04/25 13:33:25;;;;;;;4.70;4.40;;;;;;;;;;5082307;28;20402;-69
2023/04/25 13:35:53;;;;;;;4.80;4.43;;;;;;;;;;5077825;28;20264;-69
2023/04/25 13:38:20;;;;;;;4.80;4.32;;;;;;;;;;5072418;28;20220;-69
2023/04/25 13:40:46;;;;;;;4.65;4.20;;;;;;;;;;5076892;28;20478;-69
2023/04/25 13:43:12;;;;;;;4.60;4.30;;;;;;;;;;5076953;28;20219;-69
2023/04/25 13:45:40;;;;;;;4.90;4.60;;;;;;;;;;5077042;28;20258;-69
2023/04/25 13:48:06;;;;;;;6.72;4.88;;;;;;;;;;5076699;28;20212;-69
2023/04/25 13:50:35;;;;;;;6.13;4.63;;;;;;;;;;5076925;28;20239;-68
2023/04/25 13:53:01;;;;;;;5.55;5.03;;;;;;;;;;5076828;28;20251;-68
2023/04/25 13:55:27;;;;;;;5.15;4.75;;;;;;;;;;5076766;28;20559;-68
2023/04/25 13:57:53;;;;;;;5.78;4.75;;;;;;;;;;5076579;28;20216;-68
2023/04/25 14:00:20;;;;;;;5.93;5.43;;;;;;;;;;5076734;28;20452;-68
2023/04/25 14:02:47;;;;;;;4.60;4.30;;;;;;;;;;5076699;28;20230;-68
2023/04/25 14:05:13;;;;;;;5.30;4.95;;;;;;;;;;5076270;28;20219;-68
2023/04/25 14:07:40;;;;;;;5.28;4.72;;;;;;;;;;5076716;28;20212;-68
2023/04/25 14:10:07;;;;;;;5.32;4.88;;;;;;;;;;5077259;28;20208;-68
2023/04/25 14:12:34;;;;;;;5.43;4.90;;;;;;;;;;5076949;28;20208;-68
2023/04/25 14:15:01;;;;;;;5.70;4.93;;;;;;;;;;5076956;28;20283;-68
2023/04/25 14:17:27;;;;;;;5.75;5.25;;;;;;;;;;5076596;28;20209;-68
2023/04/25 14:19:53;;;;;;;4.90;4.60;;;;;;;;;;5076686;28;20223;-61
2023/04/25 14:22:20;;;;;;;5.05;4.65;;;;;;;;;;5076709;28;20220;-61
2023/04/25 14:24:48;;;;;;;6.10;5.45;;;;;;;;;;5077118;28;20259;-61
2023/04/25 14:27:14;;;;;;;6.10;5.60;;;;;;;;;;5076856;28;20228;-62
2023/04/25 14:29:41;;;;;;;8.75;6.15;;;;;;;;;;5077044;28;20213;-61
2023/04/25 14:32:07;;;;;;;6.15;5.60;;;;;;;;;;5066670;28;20498;-61
2023/04/25 14:34:33;;;;;;;6.95;5.78;;;;;;;;;;5059092;28;20217;-60
2023/04/25 14:37:00;;;;;;;6.47;5.90;;;;;;;;;;5065322;28;20220;-60
2023/04/25 14:39:26;;;;;;;6.03;5.50;;;;;;;;;;5060733;28;20208;-61
2023/04/25 14:41:53;;;;;;;6.20;5.60;;;;;;;;;;5059633;28;20501;-60
2023/04/25 14:44:20;;;;;;;6.00;5.50;;;;;;;;;;5059500;28;20280;-60